METAR Data
IDs: Format: Raw Decoded Include TAF

Data at: 0156 UTC 20 Jan 2022

ESSA 200150Z 33018KT 0900 -SN VV013 M03/M03 Q0987 TEMPO 35020G32KT 0500 SN VV006